createdAt,value
2019-03-01T00:01:19.670Z,2.37
2019-03-01T00:04:09.726Z,3.37
2019-03-01T00:07:14.693Z,2.50
2019-03-01T00:10:13.812Z,4.20
2019-03-01T00:13:15.936Z,4.17
2019-03-01T00:16:11.800Z,3.43
2019-03-01T00:19:16.885Z,2.80
2019-03-01T00:22:25.025Z,2.10
2019-03-01T00:25:21.381Z,3.17
2019-03-01T00:28:17.530Z,4.03
2019-03-01T00:31:32.844Z,3.97
2019-03-01T00:34:46.946Z,4.40
2019-03-01T00:37:45.462Z,3.77
2019-03-01T00:40:50.364Z,3.43
2019-03-01T00:43:56.703Z,3.50
2019-03-01T00:46:43.711Z,2.93
2019-03-01T00:49:32.094Z,2.63
2019-03-01T00:52:19.356Z,5.93
2019-03-01T00:55:10.932Z,3.70
2019-03-01T00:57:58.099Z,3.83
2019-03-01T01:00:48.075Z,3.67
2019-03-01T01:03:34.993Z,2.53
2019-03-01T01:06:22.256Z,7.00
2019-03-01T01:09:09.397Z,6.40
2019-03-01T01:11:56.490Z,5.47
2019-03-01T01:14:43.524Z,3.83
2019-03-01T01:17:30.470Z,4.73
2019-03-01T01:20:17.420Z,4.47
2019-03-01T01:23:04.696Z,4.73
2019-03-01T01:25:51.435Z,4.13
2019-03-01T01:28:38.619Z,3.40
2019-03-01T01:31:25.837Z,3.63
2019-03-01T01:34:12.768Z,3.27
2019-03-01T01:37:00.239Z,3.23
2019-03-01T01:39:47.139Z,2.20
2019-03-01T01:42:34.480Z,3.33
2019-03-01T01:45:21.888Z,3.37
2019-03-01T01:48:08.565Z,3.40
2019-03-01T01:50:55.493Z,2.20
2019-03-01T01:53:42.570Z,2.03
2019-03-01T01:56:30.069Z,3.13
2019-03-01T01:59:17.041Z,3.20
2019-03-01T02:02:04.700Z,3.00
2019-03-01T02:04:52.045Z,2.20
2019-03-01T02:07:39.293Z,1.90
2019-03-01T02:10:26.626Z,2.67
2019-03-01T02:13:13.824Z,2.87
2019-03-01T02:16:00.753Z,4.23
2019-03-01T02:18:47.712Z,2.10
2019-03-01T02:21:40.351Z,2.30
2019-03-01T02:24:23.226Z,2.90
2019-03-01T02:27:25.118Z,2.33
2019-03-01T02:30:18.194Z,2.67
2019-03-01T02:33:05.208Z,3.10
2019-03-01T02:35:52.559Z,3.40
2019-03-01T02:38:39.635Z,2.90
2019-03-01T02:41:26.884Z,2.53
2019-03-01T02:44:13.929Z,4.63
2019-03-01T02:47:01.273Z,5.70
2019-03-01T02:49:48.293Z,3.93
2019-03-01T02:52:35.698Z,4.53
2019-03-01T02:55:22.964Z,6.10
2019-03-01T02:58:10.146Z,2.87
2019-03-01T03:00:56.884Z,3.03
2019-03-01T03:03:44.123Z,3.47
2019-03-01T03:06:38.628Z,3.40
2019-03-01T03:09:25.799Z,5.10
2019-03-01T03:12:13.297Z,2.73
2019-03-01T03:15:00.514Z,3.17
2019-03-01T03:17:47.915Z,4.80
2019-03-01T03:20:34.689Z,5.13
2019-03-01T03:23:21.538Z,3.53
2019-03-01T03:26:09.312Z,7.00
2019-03-01T03:28:56.267Z,3.30
2019-03-01T03:31:43.337Z,3.37
2019-03-01T03:34:30.461Z,3.00
2019-03-01T03:37:17.464Z,2.70
2019-03-01T03:40:07.331Z,2.50
2019-03-01T03:42:54.243Z,3.30
2019-03-01T03:45:41.499Z,2.97
2019-03-01T03:48:28.400Z,3.27
2019-03-01T03:51:15.639Z,2.87
2019-03-01T03:54:02.585Z,3.83
2019-03-01T03:56:50.041Z,2.57
2019-03-01T03:59:37.302Z,3.50
2019-03-01T04:02:24.533Z,1.63
2019-03-01T04:05:11.846Z,1.40
2019-03-01T04:07:59.043Z,1.97
2019-03-01T04:10:46.075Z,1.17
2019-03-01T04:13:33.056Z,1.40
2019-03-01T04:16:20.332Z,2.17
2019-03-01T04:19:07.309Z,1.43
2019-03-01T04:21:54.587Z,1.30
2019-03-01T04:24:41.336Z,1.10
2019-03-01T04:27:28.402Z,1.43
2019-03-01T04:30:19.256Z,1.27
2019-03-01T04:33:06.468Z,1.20
2019-03-01T04:35:53.722Z,1.20
2019-03-01T04:38:40.770Z,1.03
2019-03-01T04:41:27.777Z,0.87
2019-03-01T04:44:14.847Z,1.30
2019-03-01T04:47:01.939Z,1.83
2019-03-01T04:49:48.609Z,0.80
2019-03-01T04:52:36.394Z,0.90
2019-03-01T04:55:25.640Z,1.17
2019-03-01T04:58:12.929Z,1.13
2019-03-01T05:01:00.102Z,1.00
2019-03-01T05:03:47.132Z,1.73
2019-03-01T05:06:34.198Z,1.60
2019-03-01T05:09:21.179Z,1.53
2019-03-01T05:12:08.568Z,3.20
2019-03-01T05:14:55.759Z,1.93
2019-03-01T05:17:42.753Z,2.53
2019-03-01T05:20:31.115Z,3.03
2019-03-01T05:23:18.659Z,1.10
2019-03-01T05:26:05.840Z,1.80
2019-03-01T05:28:53.045Z,2.27
2019-03-01T05:31:40.078Z,1.00
2019-03-01T05:34:27.148Z,0.50
2019-03-01T05:37:14.180Z,0.83
2019-03-01T05:40:00.878Z,0.60
2019-03-01T05:42:47.784Z,0.50
2019-03-01T05:45:34.733Z,0.87
2019-03-01T05:48:21.981Z,0.40
2019-03-01T05:51:08.760Z,0.30
2019-03-01T05:53:55.711Z,0.50
2019-03-01T05:56:42.939Z,0.57
2019-03-01T05:59:30.241Z,0.83
2019-03-01T06:02:29.484Z,0.50
2019-03-01T06:05:16.649Z,0.50
2019-03-01T06:08:23.104Z,1.43
2019-03-01T06:11:13.410Z,0.60
2019-03-01T06:14:06.052Z,0.50
2019-03-01T06:17:01.880Z,0.50
2019-03-01T06:19:55.214Z,0.43
2019-03-01T06:22:51.217Z,0.93
2019-03-01T06:25:44.322Z,1.40
2019-03-01T06:28:49.139Z,0.60
2019-03-01T06:31:42.003Z,0.57
2019-03-01T06:34:46.791Z,0.50
2019-03-01T06:37:39.329Z,0.60
2019-03-01T06:40:39.720Z,0.30
2019-03-01T06:43:35.665Z,0.20
2019-03-01T06:46:31.895Z,0.67
2019-03-01T06:49:20.673Z,1.40
2019-03-01T06:52:07.521Z,0.50
2019-03-01T06:54:54.484Z,1.03
2019-03-01T06:57:41.535Z,0.40
2019-03-01T07:00:30.541Z,0.50
2019-03-01T07:03:17.586Z,0.40
2019-03-01T07:06:04.917Z,0.57
2019-03-01T07:08:52.107Z,0.60
2019-03-01T07:11:39.124Z,1.10
2019-03-01T07:14:26.129Z,0.80
2019-03-01T07:17:12.760Z,1.27
2019-03-01T07:19:59.543Z,1.60
2019-03-01T07:22:46.461Z,0.90
2019-03-01T07:25:33.092Z,1.10
2019-03-01T07:28:20.161Z,1.07
2019-03-01T07:31:07.375Z,1.33
2019-03-01T07:33:54.347Z,0.97
2019-03-01T07:36:41.530Z,1.57
2019-03-01T07:39:28.660Z,0.80
2019-03-01T07:42:15.666Z,1.67
2019-03-01T07:45:02.429Z,1.67
2019-03-01T07:47:49.835Z,1.13
2019-03-01T07:50:36.904Z,1.40
2019-03-01T07:53:23.895Z,3.43
2019-03-01T07:56:10.893Z,1.37
2019-03-01T07:59:00.236Z,3.70
2019-03-01T08:01:46.821Z,2.80
2019-03-01T08:04:34.229Z,3.27
2019-03-01T08:07:23.580Z,2.37
2019-03-01T08:10:20.961Z,1.83
2019-03-01T08:13:02.400Z,1.47
2019-03-01T08:15:49.383Z,2.53
2019-03-01T08:18:40.154Z,2.43
2019-03-01T08:21:25.234Z,4.07
2019-03-01T08:24:11.986Z,1.63
2019-03-01T08:26:59.025Z,1.27
2019-03-01T08:29:46.522Z,1.03
2019-03-01T08:32:34.279Z,1.73
2019-03-01T08:35:21.267Z,1.23
2019-03-01T08:38:08.317Z,0.80
2019-03-01T08:40:55.699Z,1.00
2019-03-01T08:43:44.808Z,0.90
2019-03-01T08:46:31.423Z,0.50
2019-03-01T08:49:18.698Z,0.53
2019-03-01T08:52:06.039Z,1.23
2019-03-01T08:54:53.122Z,2.37
2019-03-01T08:57:44.170Z,1.77
2019-03-01T09:00:40.772Z,2.47
2019-03-01T09:03:41.607Z,2.60
2019-03-01T09:06:28.966Z,1.07
2019-03-01T09:09:17.605Z,0.80
2019-03-01T09:12:05.184Z,1.07
2019-03-01T09:14:52.137Z,0.83
2019-03-01T09:17:39.377Z,1.20
2019-03-01T09:20:26.322Z,1.10
2019-03-01T09:23:22.849Z,0.93
2019-03-01T09:26:02.017Z,0.77
2019-03-01T09:28:49.221Z,0.70
2019-03-01T09:31:36.302Z,0.63
2019-03-01T09:34:23.353Z,1.30
2019-03-01T09:37:10.527Z,0.70
2019-03-01T09:40:05.191Z,3.47
2019-03-01T09:42:47.413Z,1.10
2019-03-01T09:45:36.447Z,1.30
2019-03-01T09:48:24.008Z,0.83
2019-03-01T09:51:11.485Z,0.47
2019-03-01T09:53:58.715Z,0.60
2019-03-01T09:56:45.955Z,0.50
2019-03-01T09:59:33.027Z,0.90
2019-03-01T10:02:20.279Z,1.07
2019-03-01T10:05:10.406Z,0.80
2019-03-01T10:07:57.829Z,1.53
2019-03-01T10:10:44.648Z,1.97
2019-03-01T10:16:19.019Z,1.20
2019-03-01T10:19:06.533Z,2.50
2019-03-01T10:21:53.856Z,3.13
2019-03-01T10:24:40.795Z,4.30
2019-03-01T10:27:27.791Z,1.70
2019-03-01T10:30:28.703Z,3.70
2019-03-01T10:33:15.612Z,3.30
2019-03-01T10:36:02.723Z,3.30
2019-03-01T10:38:49.661Z,1.97
2019-03-01T10:41:36.666Z,1.03
2019-03-01T10:44:24.016Z,1.17
2019-03-01T10:47:11.195Z,1.10
2019-03-01T10:49:58.449Z,2.17
2019-03-01T10:52:45.455Z,2.33
2019-03-01T10:55:32.490Z,2.40
2019-03-01T10:58:19.177Z,1.27
2019-03-01T11:01:06.188Z,2.83
2019-03-01T11:03:53.298Z,2.53
2019-03-01T11:06:40.556Z,5.63
2019-03-01T11:09:27.775Z,2.03
2019-03-01T11:12:14.960Z,1.30
2019-03-01T11:15:01.919Z,1.93
2019-03-01T11:17:49.316Z,1.17
2019-03-01T11:20:36.421Z,1.03
2019-03-01T11:23:23.531Z,2.80
2019-03-01T11:26:10.493Z,3.53
2019-03-01T11:28:57.592Z,1.90
2019-03-01T11:31:44.638Z,1.03
2019-03-01T11:34:31.885Z,0.93
2019-03-01T11:37:18.874Z,0.97
2019-03-01T11:40:12.085Z,0.60
2019-03-01T11:42:59.185Z,2.73
2019-03-01T11:45:46.390Z,2.47
2019-03-01T11:48:33.546Z,1.60
2019-03-01T11:51:20.570Z,1.57
2019-03-01T11:54:07.863Z,0.50
2019-03-01T11:56:54.785Z,0.47
2019-03-01T11:59:41.518Z,0.73
2019-03-01T12:02:28.207Z,0.60
2019-03-01T12:05:15.922Z,1.07
2019-03-01T12:08:02.698Z,1.17
2019-03-01T12:10:49.664Z,0.60
2019-03-01T12:13:36.751Z,2.30
2019-03-01T12:16:24.061Z,1.67
2019-03-01T12:19:11.456Z,0.50
2019-03-01T12:21:58.315Z,0.50
2019-03-01T12:24:45.713Z,1.70
2019-03-01T12:27:33.150Z,0.70
2019-03-01T12:30:24.812Z,0.47
2019-03-01T12:33:11.891Z,0.40
2019-03-01T12:35:59.087Z,1.07
2019-03-01T12:38:46.309Z,0.40
2019-03-01T12:41:33.730Z,0.60
2019-03-01T12:44:20.970Z,0.60
2019-03-01T12:47:08.299Z,0.53
2019-03-01T12:49:55.727Z,1.27
2019-03-01T12:52:42.755Z,0.50
2019-03-01T12:55:33.196Z,0.43
2019-03-01T12:58:20.162Z,0.40
2019-03-01T13:01:10.141Z,0.27
2019-03-01T13:03:57.767Z,0.40
2019-03-01T13:06:44.735Z,0.83
2019-03-01T13:09:31.980Z,0.60
2019-03-01T13:12:19.032Z,0.80
2019-03-01T13:15:10.689Z,0.63
2019-03-01T13:17:56.224Z,0.63
2019-03-01T13:20:43.189Z,0.60
2019-03-01T13:23:30.558Z,1.23
2019-03-01T13:26:17.511Z,0.73
2019-03-01T13:29:04.746Z,0.97
2019-03-01T13:31:51.733Z,0.97
2019-03-01T13:34:38.944Z,0.60
2019-03-01T13:37:25.918Z,0.70
2019-03-01T13:40:15.453Z,0.80
2019-03-01T13:43:02.537Z,2.10
2019-03-01T13:45:52.680Z,0.80
2019-03-01T13:48:38.316Z,1.37
2019-03-01T13:51:25.344Z,0.80
2019-03-01T13:54:12.822Z,0.83
2019-03-01T13:56:59.534Z,0.50
2019-03-01T13:59:46.445Z,1.37
2019-03-01T14:02:33.710Z,0.50
2019-03-01T14:05:20.710Z,0.27
2019-03-01T14:08:09.242Z,0.37
2019-03-01T14:10:56.460Z,0.30
2019-03-01T14:13:43.505Z,0.10
2019-03-01T14:16:30.467Z,0.40
2019-03-01T14:19:17.473Z,0.83
2019-03-01T14:22:05.216Z,2.53
2019-03-01T14:24:53.563Z,0.73
2019-03-01T14:27:40.890Z,0.60
2019-03-01T14:30:30.273Z,0.40
2019-03-01T14:33:17.094Z,0.93
2019-03-01T14:36:04.167Z,0.40
2019-03-01T14:38:51.409Z,1.13
2019-03-01T14:41:38.498Z,0.50
2019-03-01T14:44:25.496Z,0.63
2019-03-01T14:47:13.139Z,0.50
2019-03-01T14:50:00.148Z,0.47
2019-03-01T14:52:47.119Z,0.80
2019-03-01T14:55:43.174Z,0.90
2019-03-01T14:58:51.768Z,1.90
2019-03-01T15:01:42.030Z,1.60
2019-03-01T15:04:29.729Z,2.13
2019-03-01T15:07:16.748Z,3.40
2019-03-01T15:10:05.334Z,3.60
2019-03-01T15:12:53.986Z,2.93
2019-03-01T15:15:41.534Z,2.23
2019-03-01T15:18:29.008Z,1.73
2019-03-01T15:21:17.548Z,1.70
2019-03-01T15:24:05.065Z,1.57
2019-03-01T15:26:52.143Z,1.30
2019-03-01T15:29:39.132Z,2.03
2019-03-01T15:32:26.113Z,2.50
2019-03-01T15:35:13.402Z,2.43
2019-03-01T15:38:00.114Z,2.87
2019-03-01T15:40:47.383Z,3.40
2019-03-01T15:43:34.557Z,3.50
2019-03-01T15:46:21.319Z,4.40
2019-03-01T15:49:08.366Z,3.37
2019-03-01T15:51:55.862Z,3.50
2019-03-01T15:54:43.164Z,2.80
2019-03-01T15:57:30.370Z,3.40
2019-03-01T16:00:18.690Z,3.57
2019-03-01T16:03:05.956Z,3.70
2019-03-01T16:05:52.796Z,3.50
2019-03-01T16:08:39.969Z,4.07
2019-03-01T16:11:27.679Z,4.20
2019-03-01T16:14:14.996Z,4.17
2019-03-01T16:17:02.300Z,4.77
2019-03-01T16:19:50.163Z,5.07
2019-03-01T16:22:37.947Z,5.63
2019-03-01T16:25:25.003Z,7.03
2019-03-01T16:28:12.066Z,7.80
2019-03-01T16:30:59.183Z,8.20
2019-03-01T16:33:46.128Z,8.53
2019-03-01T16:36:33.430Z,8.83
2019-03-01T16:39:23.775Z,8.27
2019-03-01T16:42:09.467Z,9.47
2019-03-01T16:44:56.739Z,11.00
2019-03-01T16:47:44.278Z,9.00
2019-03-01T16:50:31.441Z,10.03
2019-03-01T16:53:18.634Z,9.63
2019-03-01T16:56:05.877Z,10.57
2019-03-01T16:58:53.119Z,10.83
2019-03-01T17:01:40.698Z,12.43
2019-03-01T17:04:48.318Z,12.17
2019-03-01T17:07:48.955Z,11.90
2019-03-01T17:10:51.681Z,14.10
2019-03-01T17:13:52.146Z,14.80
2019-03-01T17:16:52.580Z,13.77
2019-03-01T17:19:53.321Z,13.40
2019-03-01T17:22:53.621Z,13.73
2019-03-01T17:25:54.321Z,14.77
2019-03-01T17:28:54.681Z,14.33
2019-03-01T17:31:55.294Z,15.87
2019-03-01T17:34:55.590Z,12.73
2019-03-01T17:37:56.213Z,14.50
2019-03-01T17:40:57.090Z,14.27
2019-03-01T17:43:58.342Z,15.40
2019-03-01T17:46:58.819Z,15.10
2019-03-01T17:49:59.478Z,15.50
2019-03-01T17:53:00.205Z,15.30
2019-03-01T17:56:00.714Z,16.80
2019-03-01T17:59:01.336Z,19.80
2019-03-01T18:02:01.943Z,17.87
2019-03-01T18:05:02.303Z,18.63
2019-03-01T18:08:03.573Z,17.63
2019-03-01T18:11:08.264Z,17.70
2019-03-01T18:14:07.780Z,15.40
2019-03-01T18:17:08.458Z,14.53
2019-03-01T18:20:08.798Z,13.87
2019-03-01T18:23:09.303Z,13.50
2019-03-01T18:26:09.745Z,14.63
2019-03-01T18:29:10.761Z,15.73
2019-03-01T18:32:11.112Z,14.93
2019-03-01T18:35:12.228Z,13.67
2019-03-01T18:38:13.423Z,11.63
2019-03-01T18:41:14.051Z,12.43
2019-03-01T18:44:15.322Z,11.47
2019-03-01T18:47:15.994Z,14.17
2019-03-01T18:50:16.749Z,9.67
2019-03-01T18:53:17.490Z,10.53
2019-03-01T18:56:17.739Z,10.73
2019-03-01T18:59:18.372Z,10.10
2019-03-01T19:02:19.469Z,10.40
2019-03-01T19:05:20.258Z,11.70
2019-03-01T19:08:20.737Z,13.97
2019-03-01T19:11:21.470Z,14.40
2019-03-01T19:14:22.231Z,13.67
2019-03-01T19:17:22.539Z,14.80
2019-03-01T19:20:23.323Z,15.53
2019-03-01T19:23:25.648Z,14.53
2019-03-01T19:26:26.857Z,14.90
2019-03-01T19:29:27.330Z,17.33
2019-03-01T19:32:27.767Z,16.13
2019-03-01T19:35:29.809Z,17.93
2019-03-01T19:38:31.017Z,20.57
2019-03-01T19:41:31.517Z,20.30
2019-03-01T19:44:32.383Z,24.07
2019-03-01T19:47:33.021Z,25.40
2019-03-01T19:50:33.477Z,23.73
2019-03-01T19:53:33.991Z,24.53
2019-03-01T19:56:34.709Z,26.97
2019-03-01T19:59:35.437Z,28.10
2019-03-01T20:02:36.370Z,26.00
2019-03-01T20:05:37.438Z,27.80
2019-03-01T20:08:37.899Z,31.73
2019-03-01T20:11:38.233Z,31.67
2019-03-01T20:14:38.826Z,32.23
2019-03-01T20:17:44.371Z,36.83
2019-03-01T20:20:41.627Z,37.70
2019-03-01T20:23:42.094Z,35.07
2019-03-01T20:26:42.407Z,42.40
2019-03-01T20:29:43.485Z,40.43
2019-03-01T20:32:47.462Z,42.70
2019-03-01T20:35:46.925Z,43.57
2019-03-01T20:38:36.999Z,44.30
2019-03-01T20:41:46.625Z,45.73
2019-03-01T20:44:35.808Z,48.97
2019-03-01T20:47:44.778Z,48.80
2019-03-01T20:50:47.685Z,51.13
2019-03-01T20:53:36.709Z,49.13
2019-03-01T20:56:47.867Z,50.23
2019-03-01T20:59:50.574Z,45.37
2019-03-01T21:02:50.344Z,45.57
2019-03-01T21:05:52.404Z,49.13
2019-03-01T21:08:54.347Z,45.53
2019-03-01T21:11:57.772Z,53.43
2019-03-01T21:14:58.676Z,50.30
2019-03-01T21:18:00.695Z,51.87
2019-03-01T21:21:01.482Z,51.90
2019-03-01T21:24:01.990Z,56.17
2019-03-01T21:27:02.601Z,54.47
2019-03-01T21:30:03.249Z,55.97
2019-03-01T21:33:04.110Z,58.53
2019-03-01T21:36:04.659Z,59.00
2019-03-01T21:39:05.514Z,57.70
2019-03-01T21:42:06.643Z,64.43
2019-03-01T21:45:07.175Z,58.57
2019-03-01T21:48:08.027Z,55.97
2019-03-01T21:51:09.033Z,56.40
2019-03-01T21:54:12.553Z,46.77
2019-03-01T21:57:12.634Z,49.07
2019-03-01T22:00:13.082Z,46.77
2019-03-01T22:03:13.390Z,48.03
2019-03-01T22:06:13.810Z,58.00
2019-03-01T22:09:14.181Z,51.73
2019-03-01T22:12:14.803Z,52.27
2019-03-01T22:15:15.380Z,50.33
2019-03-01T22:18:15.974Z,51.60
2019-03-01T22:21:20.260Z,57.73
2019-03-01T22:24:19.103Z,52.20
2019-03-01T22:27:21.591Z,50.10
2019-03-01T22:30:23.119Z,47.60
2019-03-01T22:33:24.724Z,52.27
2019-03-01T22:36:25.181Z,45.93
2019-03-01T22:39:25.667Z,51.60
2019-03-01T22:42:26.300Z,48.13
2019-03-01T22:45:26.988Z,46.43
2019-03-01T22:48:27.552Z,37.93
2019-03-01T22:51:28.510Z,36.13
2019-03-01T22:54:29.341Z,30.93
2019-03-01T22:57:29.744Z,33.03
2019-03-01T23:00:49.692Z,27.87
2019-03-01T23:03:51.593Z,31.30
2019-03-01T23:06:52.990Z,28.60
2019-03-01T23:09:53.231Z,30.53
2019-03-01T23:12:53.716Z,25.57
2019-03-01T23:15:54.268Z,28.37
2019-03-01T23:18:56.920Z,29.00
2019-03-01T23:21:58.198Z,31.50
2019-03-01T23:24:58.641Z,32.33
2019-03-01T23:27:59.473Z,31.27
2019-03-01T23:31:00.480Z,33.03
2019-03-01T23:34:03.712Z,34.10
2019-03-01T23:37:05.405Z,33.17
2019-03-01T23:40:06.538Z,35.07
2019-03-01T23:43:07.116Z,34.80
2019-03-01T23:46:07.820Z,34.63
2019-03-01T23:49:08.594Z,34.53
2019-03-01T23:52:09.045Z,38.07
2019-03-01T23:55:09.415Z,36.43
2019-03-01T23:58:12.605Z,40.50
